Aviation Digital Data Service (ADDS)

Output produced by METARs form (1037 UTC 01 April 2015)
found at http://www.aviationweather.gov/adds/metars/
 
KBOS 010807Z 0108/0212 35010KT P6SM FEW200 
     FM011500 34013G22KT P6SM SKC 
     FM020100 32009KT P6SM SKC 
     FM020700 28006KT P6SM FEW150